Time;durP1;ratioP1;P1;durP2;ratioP2;P2;SDS_P1;SDS_P2;PMS_P1;PMS_P2;Temp;Humidity;BMP_temperature;BMP_pressure;BME280_temperature;BME280_humidity;BME280_pressure;Samples;Min_cycle;Max_cycle;Signal;HPM_P1;HPM_P2
2023/07/27 00:00:11;;;;;;;7.68;4.72;;;;;;;17.84;100.00;-18507.16;5107119;28;20046;-76
2023/07/27 00:02:37;;;;;;;9.07;5.22;;;;;;;17.75;100.00;-18504.97;5102063;28;20035;-76
2023/07/27 00:05:03;;;;;;;7.93;4.93;;;;;;;17.89;100.00;-18508.53;5103904;28;20044;-77
2023/07/27 00:07:28;;;;;;;7.50;4.70;;;;;;;17.83;100.00;-18506.88;5105324;28;20031;-77
2023/07/27 00:09:54;;;;;;;7.47;4.60;;;;;;;17.85;100.00;-18507.44;5100999;28;20039;-79
2023/07/27 00:12:19;;;;;;;7.75;4.68;;;;;;;17.91;100.00;-18509.22;5106437;28;20502;-78
2023/07/27 00:14:44;;;;;;;7.43;4.50;;;;;;;18.00;100.00;-18511.53;5105274;28;20161;-78
2023/07/27 00:17:10;;;;;;;8.63;5.10;;;;;;;18.03;100.00;-18512.34;5105856;28;20115;-79
2023/07/27 00:19:35;;;;;;;7.25;4.57;;;;;;;17.98;100.00;-18510.97;5104902;28;20039;-79
2023/07/27 00:22:00;;;;;;;9.23;4.85;;;;;;;18.12;100.00;-18514.66;5106419;28;20036;-79
2023/07/27 00:24:26;;;;;;;7.88;4.30;;;;;;;18.22;100.00;-18517.53;5105611;28;20039;-78
2023/07/27 00:26:51;;;;;;;8.23;4.28;;;;;;;18.13;100.00;-18514.94;5106131;28;20035;-78
2023/07/27 00:29:17;;;;;;;6.47;3.55;;;;;;;18.24;100.00;-18518.06;5106455;28;20039;-79
2023/07/27 00:31:42;;;;;;;6.05;3.90;;;;;;;18.58;100.00;-18526.94;5105315;28;20051;-78
2023/07/27 00:34:07;;;;;;;6.57;4.05;;;;;;;18.70;100.00;-18530.34;5106234;28;20093;-78
2023/07/27 00:36:33;;;;;;;7.85;3.83;;;;;;;18.65;100.00;-18528.97;5105251;28;20028;-77
2023/07/27 00:38:58;;;;;;;7.13;4.10;;;;;;;18.57;100.00;-18526.81;5106979;28;20043;-77
2023/07/27 00:41:24;;;;;;;8.02;3.75;;;;;;;18.57;100.00;-18526.81;5104848;28;20662;-77
2023/07/27 00:43:49;;;;;;;7.18;3.33;;;;;;;18.58;100.00;-18527.06;5096203;28;20574;-76
2023/07/27 00:46:15;;;;;;;8.65;4.25;;;;;;;18.69;100.00;-18530.06;5106938;28;20035;-77
2023/07/27 00:48:41;;;;;;;7.68;4.32;;;;;;;18.76;100.00;-18531.72;5104354;28;20047;-78
2023/07/27 00:51:10;;;;;;;6.72;3.75;;;;;;;18.75;100.00;-18531.44;5105739;28;20039;-77
2023/07/27 00:53:36;;;;;;;7.25;3.75;;;;;;;18.72;100.00;-18530.88;5105892;28;20035;-77
2023/07/27 00:56:02;;;;;;;6.10;4.05;;;;;;;18.66;100.00;-18529.25;5106404;28;20055;-76
2023/07/27 00:58:28;;;;;;;7.40;4.30;;;;;;;18.84;99.45;-18533.91;5106131;28;20066;-77
2023/07/27 01:00:53;;;;;;;8.10;4.47;;;;;;;19.02;99.38;-18538.81;5104759;28;20063;-78
2023/07/27 01:03:19;;;;;;;7.28;4.45;;;;;;;18.91;99.60;-18535.81;5104080;28;20040;-76
2023/07/27 01:05:44;;;;;;;8.65;4.55;;;;;;;19.00;99.42;-18538.13;5104096;28;20038;-77
2023/07/27 01:08:10;;;;;;;14.27;4.90;;;;;;;18.89;99.29;-18535.25;5105848;28;20050;-77
2023/07/27 01:11:02;;;;;;;7.13;5.00;;;;;;;19.02;100.00;-18538.66;5100751;28;20143;-78
2023/07/27 01:13:49;;;;;;;6.53;4.63;;;;;;;19.17;97.83;-18542.88;5079236;28;20070;-78
2023/07/27 01:16:30;;;;;;;7.80;5.07;;;;;;;19.21;97.49;-18543.84;5106189;28;20392;-78
2023/07/27 01:19:02;;;;;;;9.13;5.38;;;;;;;19.45;97.03;-18550.25;5097328;28;20047;-78
2023/07/27 01:21:36;;;;;;;10.02;5.63;;;;;;;19.45;97.04;-18550.09;5087527;28;20115;-77
2023/07/27 01:24:25;;;;;;;11.35;5.80;;;;;;;19.39;97.62;-18548.59;5108583;28;20092;-77
2023/07/27 01:27:19;;;;;;;7.82;5.47;;;;;;;19.38;99.79;-18548.34;5109016;28;20036;-77
2023/07/27 01:30:14;;;;;;;9.30;5.90;;;;;;;19.29;100.00;-18545.88;5045103;28;20049;-77
2023/07/27 01:32:41;;;;;;;9.50;6.47;;;;;;;19.41;99.85;-18549.16;5107407;28;20115;-77
2023/07/27 01:35:12;;;;;;;10.07;6.10;;;;;;;19.33;100.00;-18547.13;5107859;28;20039;-77
2023/07/27 01:37:41;;;;;;;10.60;5.95;;;;;;;19.41;100.00;-18549.16;5108620;28;20108;-76
2023/07/27 01:40:09;;;;;;;10.65;6.80;;;;;;;19.48;100.00;-18551.06;5092816;28;20085;-77
2023/07/27 01:42:35;;;;;;;9.50;6.57;;;;;;;19.56;100.00;-18553.25;5107560;28;20042;-77
2023/07/27 01:45:02;;;;;;;9.23;6.10;;;;;;;19.56;100.00;-18553.09;5102243;28;20051;-77
2023/07/27 01:47:28;;;;;;;10.27;6.60;;;;;;;19.50;100.00;-18551.59;5108719;28;20035;-77
2023/07/27 01:49:54;;;;;;;10.02;5.93;;;;;;;19.57;100.00;-18553.50;5104678;28;20039;-77
2023/07/27 01:52:21;;;;;;;10.15;6.93;;;;;;;19.54;100.00;-18552.69;5109241;28;20035;-77
2023/07/27 01:54:48;;;;;;;11.70;6.55;;;;;;;19.56;100.00;-18553.25;5107251;28;20039;-77
2023/07/27 01:57:15;;;;;;;12.43;6.68;;;;;;;19.55;100.00;-18552.97;5104791;28;20043;-76
2023/07/27 01:59:44;;;;;;;13.52;7.10;;;;;;;19.68;100.00;-18556.25;5098521;28;20040;-76
2023/07/27 02:02:12;;;;;;;10.40;6.82;;;;;;;19.71;100.00;-18557.19;5082223;28;20501;-77
2023/07/27 02:04:37;;;;;;;11.65;6.18;;;;;;;19.77;100.00;-18558.84;5107262;28;20031;-77
2023/07/27 02:07:03;;;;;;;11.25;6.57;;;;;;;19.50;100.00;-18551.59;5106604;28;20047;-77
2023/07/27 02:09:28;;;;;;;10.60;6.95;;;;;;;19.63;100.00;-18555.00;5107519;28;20046;-77
2023/07/27 02:11:58;;;;;;;12.45;6.78;;;;;;;19.61;100.00;-18554.59;5107178;27;20032;-77
2023/07/27 02:14:37;;;;;;;16.33;7.68;;;;;;;19.67;100.00;-18555.97;5107867;27;20065;-77
2023/07/27 02:17:11;;;;;;;11.77;6.78;;;;;;;19.58;100.00;-18553.78;5088206;28;20181;-77
2023/07/27 02:19:39;;;;;;;13.73;6.85;;;;;;;19.42;100.00;-18549.44;5107426;27;20043;-76
2023/07/27 02:22:08;;;;;;;13.47;6.77;;;;;;;19.33;100.00;-18546.97;5106258;27;20800;-77
2023/07/27 02:24:34;;;;;;;10.43;7.45;;;;;;;19.45;100.00;-18550.25;5108401;27;20289;-77
2023/07/27 02:27:00;;;;;;;12.25;6.13;;;;;;;19.47;100.00;-18550.78;5108750;27;20088;-76
2023/07/27 02:29:25;;;;;;;10.82;6.35;;;;;;;19.30;100.00;-18546.28;5108928;27;20044;-76
2023/07/27 02:31:50;;;;;;;11.10;6.63;;;;;;;19.29;100.00;-18545.88;5108217;27;20036;-76
2023/07/27 02:34:16;;;;;;;10.63;6.50;;;;;;;19.33;100.00;-18547.13;5112971;27;20039;-77
2023/07/27 02:36:41;;;;;;;10.27;7.07;;;;;;;19.38;100.00;-18548.34;5112176;27;20126;-77
2023/07/27 02:39:07;;;;;;;10.75;7.15;;;;;;;19.32;100.00;-18546.72;5106499;27;20047;-77
2023/07/27 02:41:32;;;;;;;10.98;6.22;;;;;;;19.24;100.00;-18544.53;5110433;27;20031;-77
2023/07/27 02:43:57;;;;;;;11.48;6.68;;;;;;;19.23;100.00;-18544.25;5089097;27;20063;-78
2023/07/27 02:46:23;;;;;;;11.52;7.13;;;;;;;19.23;100.00;-18544.25;5109188;27;20059;-76
2023/07/27 02:48:48;;;;;;;10.73;6.65;;;;;;;19.26;100.00;-18545.06;5105986;27;20066;-78
2023/07/27 02:51:13;;;;;;;12.18;6.85;;;;;;;19.25;100.00;-18544.94;5104429;27;20044;-78
2023/07/27 02:53:39;;;;;;;11.30;6.65;;;;;;;19.23;100.00;-18544.38;5106171;27;20127;-75
2023/07/27 02:56:06;;;;;;;11.18;6.78;;;;;;;19.29;100.00;-18546.03;5107071;27;20039;-77
2023/07/27 02:58:31;;;;;;;11.27;8.43;;;;;;;19.33;100.00;-18546.97;5103559;27;20081;-76
2023/07/27 03:00:58;;;;;;;11.63;7.80;;;;;;;19.10;100.00;-18540.84;5104655;27;20174;-78
2023/07/27 03:03:24;;;;;;;14.52;8.10;;;;;;;19.00;100.00;-18538.25;5107196;27;20046;-77
2023/07/27 03:06:00;;;;;;;12.85;8.48;;;;;;;19.10;100.00;-18540.84;5103207;27;20039;-78
2023/07/27 03:08:26;;;;;;;15.35;9.10;;;;;;;19.06;100.00;-18539.91;5097032;27;20108;-76
2023/07/27 03:10:52;;;;;;;13.82;8.50;;;;;;;19.09;100.00;-18540.72;5106550;28;20518;-77
2023/07/27 03:13:20;;;;;;;14.63;9.20;;;;;;;19.06;100.00;-18539.75;5088919;28;20486;-78
2023/07/27 03:15:46;;;;;;;15.23;8.98;;;;;;;19.02;100.00;-18538.66;5103435;27;20059;-78
2023/07/27 03:18:11;;;;;;;12.90;9.05;;;;;;;19.06;100.00;-18539.91;5113894;27;20040;-77
2023/07/27 03:20:41;;;;;;;13.48;8.98;;;;;;;19.00;100.00;-18538.13;5106555;27;20040;-78
2023/07/27 03:23:07;;;;;;;13.82;9.63;;;;;;;18.99;100.00;-18538.00;5107040;27;20104;-78
2023/07/27 03:25:34;;;;;;;16.13;9.77;;;;;;;18.95;100.00;-18536.91;5107589;27;20039;-78
2023/07/27 03:28:07;;;;;;;15.93;10.45;;;;;;;19.07;100.00;-18540.03;5106930;27;20084;-76
2023/07/27 03:30:38;;;;;;;18.90;11.18;;;;;;;19.12;100.00;-18541.38;5103750;27;20702;-77
2023/07/27 03:33:04;;;;;;;15.05;11.43;;;;;;;19.12;100.00;-18541.53;5105481;27;20042;-78
2023/07/27 03:35:29;;;;;;;17.40;11.60;;;;;;;19.07;100.00;-18540.16;5105224;28;20135;-77
2023/07/27 03:37:55;;;;;;;17.67;12.00;;;;;;;19.05;100.00;-18539.50;5105572;28;20110;-78
2023/07/27 03:40:21;;;;;;;17.33;12.02;;;;;;;19.05;100.00;-18539.63;5108529;27;20123;-77
2023/07/27 03:42:47;;;;;;;16.20;11.45;;;;;;;18.93;100.00;-18536.34;5084636;28;20984;-80
2023/07/27 03:45:14;;;;;;;17.67;12.40;;;;;;;19.01;100.00;-18538.41;5110110;27;20099;-78
2023/07/27 03:47:40;;;;;;;16.88;11.85;;;;;;;18.97;100.00;-18537.31;5085868;28;20039;-78
2023/07/27 03:50:06;;;;;;;18.42;11.95;;;;;;;18.82;100.00;-18533.34;5108087;27;20047;-79
2023/07/27 03:52:32;;;;;;;19.77;12.77;;;;;;;18.80;100.00;-18532.81;5102916;27;21239;-79
2023/07/27 03:54:57;;;;;;;19.45;11.98;;;;;;;18.68;100.00;-18529.81;5105178;28;20122;-79
2023/07/27 03:57:23;;;;;;;19.95;13.52;;;;;;;18.75;100.00;-18531.56;5104628;27;20070;-79
2023/07/27 03:59:48;;;;;;;18.75;12.73;;;;;;;18.72;100.00;-18530.75;5105882;27;20047;-77
2023/07/27 04:02:14;;;;;;;21.13;13.88;;;;;;;18.75;100.00;-18531.56;5105651;28;20040;-77
2023/07/27 04:04:39;;;;;;;22.95;14.85;;;;;;;18.68;100.00;-18529.81;5104809;28;21008;-77
2023/07/27 04:07:04;;;;;;;19.98;13.65;;;;;;;18.59;100.00;-18527.22;5105979;27;20107;-79
2023/07/27 04:09:30;;;;;;;20.83;13.25;;;;;;;18.63;100.00;-18528.31;5104065;27;20036;-77
2023/07/27 04:11:55;;;;;;;20.17;14.43;;;;;;;18.57;100.00;-18526.66;5105677;27;20059;-77
2023/07/27 04:14:20;;;;;;;22.88;14.50;;;;;;;18.50;100.00;-18524.91;5108541;27;20032;-79
2023/07/27 04:16:46;;;;;;;24.70;14.82;;;;;;;18.53;100.00;-18525.72;5101718;27;20457;-78
2023/07/27 04:19:11;;;;;;;22.90;14.43;;;;;;;18.60;100.00;-18527.47;5106402;27;20059;-78
2023/07/27 04:21:37;;;;;;;22.50;14.18;;;;;;;18.59;100.00;-18527.22;5104905;27;20035;-79
2023/07/27 04:24:02;;;;;;;24.15;14.52;;;;;;;18.72;100.00;-18530.75;5106928;28;20043;-78
2023/07/27 04:26:29;;;;;;;23.42;13.93;;;;;;;18.73;100.00;-18531.03;5106533;27;20896;-75
2023/07/27 04:28:54;;;;;;;20.50;13.95;;;;;;;18.79;100.00;-18532.53;5099924;27;20438;-78
2023/07/27 04:31:19;;;;;;;22.67;15.13;;;;;;;18.79;100.00;-18532.66;5094169;28;20036;-78
2023/07/27 04:33:45;;;;;;;22.90;14.82;;;;;;;18.76;100.00;-18531.72;5103724;27;20040;-77
2023/07/27 04:36:10;;;;;;;23.40;14.77;;;;;;;18.67;100.00;-18529.53;5092012;28;20044;-79
2023/07/27 04:38:35;;;;;;;23.27;14.63;;;;;;;18.64;100.00;-18528.56;5105526;27;20586;-78
2023/07/27 04:41:01;;;;;;;23.92;15.07;;;;;;;18.66;100.00;-18529.13;5112456;27;20039;-77
2023/07/27 04:43:26;;;;;;;25.33;16.13;;;;;;;18.70;100.00;-18530.22;5101443;27;20039;-78
2023/07/27 04:45:52;;;;;;;22.98;15.27;;;;;;;18.66;100.00;-18529.13;5098666;27;20050;-78
2023/07/27 04:48:17;;;;;;;23.85;15.98;;;;;;;18.72;100.00;-18530.88;5106064;27;20044;-79
2023/07/27 04:50:42;;;;;;;21.70;14.77;;;;;;;18.68;100.00;-18529.81;5099897;28;20050;-79
2023/07/27 04:53:08;;;;;;;24.10;15.93;;;;;;;18.74;100.00;-18531.16;5085320;28;20036;-78
2023/07/27 04:55:33;;;;;;;20.67;14.18;;;;;;;18.68;100.00;-18529.66;5103534;28;20101;-78
2023/07/27 04:57:59;;;;;;;19.98;14.57;;;;;;;18.72;100.00;-18530.75;5112806;27;20044;-77
2023/07/27 05:00:24;;;;;;;23.00;14.15;;;;;;;18.64;100.00;-18528.56;5106405;27;20119;-78
2023/07/27 05:02:49;;;;;;;20.10;14.75;;;;;;;18.82;100.00;-18533.34;5112840;27;20092;-76
2023/07/27 05:05:18;;;;;;;21.83;14.45;;;;;;;18.87;100.00;-18534.84;5106316;27;20051;-77
2023/07/27 05:07:43;;;;;;;20.25;12.30;;;;;;;18.94;100.00;-18536.75;5096673;27;20040;-78
2023/07/27 05:10:09;;;;;;;24.25;14.13;;;;;;;18.95;100.00;-18536.91;5112550;27;20184;-78
2023/07/27 05:12:34;;;;;;;22.75;14.02;;;;;;;19.07;100.00;-18540.03;5103229;27;20047;-77
2023/07/27 05:15:06;;;;;;;21.85;13.40;;;;;;;19.14;100.00;-18541.94;5105976;28;20040;-78
2023/07/27 05:17:32;;;;;;;20.42;13.38;;;;;;;19.05;100.00;-18539.63;5107163;27;20040;-78
2023/07/27 05:19:57;;;;;;;21.95;13.70;;;;;;;19.02;100.00;-18538.81;5091747;27;20131;-79
2023/07/27 05:22:23;;;;;;;19.98;13.10;;;;;;;18.84;100.00;-18533.91;5106881;27;20044;-77
2023/07/27 05:24:48;;;;;;;23.30;12.73;;;;;;;18.72;100.00;-18530.88;5104949;27;20067;-78
2023/07/27 05:27:13;;;;;;;21.13;13.95;;;;;;;18.92;100.00;-18536.06;5113418;27;20396;-77
2023/07/27 05:29:39;;;;;;;20.02;13.98;;;;;;;19.08;100.00;-18540.31;5108051;27;20039;-78
2023/07/27 05:32:05;;;;;;;21.33;14.13;;;;;;;18.93;100.00;-18536.50;5108330;27;20731;-78
2023/07/27 05:34:30;;;;;;;20.80;14.80;;;;;;;19.01;100.00;-18538.53;5105829;27;20089;-77
2023/07/27 05:36:55;;;;;;;23.92;15.18;;;;;;;19.05;100.00;-18539.63;5104770;27;20043;-78
2023/07/27 05:39:21;;;;;;;23.65;15.15;;;;;;;19.09;100.00;-18540.72;5108226;27;20095;-78
2023/07/27 05:41:46;;;;;;;23.60;15.48;;;;;;;18.99;100.00;-18538.00;5104194;27;20986;-77
2023/07/27 05:44:11;;;;;;;23.05;15.02;;;;;;;18.92;100.00;-18536.22;5105330;28;20051;-79
2023/07/27 05:46:37;;;;;;;24.10;16.48;;;;;;;18.98;100.00;-18537.72;5080475;28;20104;-76
2023/07/27 05:49:03;;;;;;;22.70;15.23;;;;;;;18.94;100.00;-18536.75;5108410;27;20202;-78
2023/07/27 05:51:29;;;;;;;25.13;15.30;;;;;;;18.96;100.00;-18537.16;5107541;27;20115;-78
2023/07/27 05:53:54;;;;;;;25.08;14.85;;;;;;;19.03;100.00;-18539.06;5106737;27;20136;-77
2023/07/27 05:56:20;;;;;;;23.38;15.98;;;;;;;19.10;100.00;-18540.84;5109418;27;20039;-78
2023/07/27 05:58:46;;;;;;;23.48;15.32;;;;;;;19.08;100.00;-18540.44;5107320;27;20061;-78
2023/07/27 06:01:11;;;;;;;27.08;15.25;;;;;;;19.25;100.00;-18544.94;5106661;27;20055;-76
2023/07/27 06:03:37;;;;;;;20.48;13.77;;;;;;;19.23;100.00;-18544.38;5107037;27;20040;-78
2023/07/27 06:06:03;;;;;;;19.90;13.88;;;;;;;19.19;100.00;-18543.31;5108522;27;20123;-78
2023/07/27 06:08:29;;;;;;;16.75;11.48;;;;;;;19.27;100.00;-18545.34;5088222;28;20050;-78
2023/07/27 06:11:03;;;;;;;17.63;11.45;;;;;;;19.21;100.00;-18543.72;5108400;27;20055;-78
2023/07/27 06:13:29;;;;;;;17.48;11.68;;;;;;;19.14;100.00;-18542.06;5106785;28;20486;-77
2023/07/27 06:15:55;;;;;;;15.90;11.48;;;;;;;19.13;100.00;-18541.81;5107841;28;20042;-79
2023/07/27 06:18:20;;;;;;;13.02;9.57;;;;;;;19.15;100.00;-18542.34;5113196;27;20047;-79
2023/07/27 06:20:45;;;;;;;14.70;10.63;;;;;;;19.14;100.00;-18542.06;5107638;28;20044;-78
2023/07/27 06:23:11;;;;;;;16.77;10.88;;;;;;;19.12;100.00;-18541.53;5109949;28;20027;-77
2023/07/27 06:25:41;;;;;;;14.00;9.95;;;;;;;19.19;100.00;-18543.16;5110076;28;20036;-78
2023/07/27 06:28:07;;;;;;;15.98;10.07;;;;;;;19.31;100.00;-18546.44;5108551;28;20040;-77
2023/07/27 06:30:36;;;;;;;14.75;10.35;;;;;;;19.33;100.00;-18547.13;5108280;28;20031;-78
2023/07/27 06:33:01;;;;;;;13.00;8.80;;;;;;;19.14;100.00;-18542.06;5100641;28;20128;-76
2023/07/27 06:35:26;;;;;;;12.60;8.70;;;;;;;19.17;100.00;-18542.88;5091404;28;20292;-78
2023/07/27 06:37:52;;;;;;;15.38;9.10;;;;;;;19.31;100.00;-18546.56;5107185;28;20063;-76
2023/07/27 06:40:17;;;;;;;12.98;9.55;;;;;;;19.39;100.00;-18548.59;5104915;28;20055;-77
2023/07/27 06:42:42;;;;;;;13.65;8.77;;;;;;;19.43;100.00;-18549.56;5105009;28;20036;-77
2023/07/27 06:45:08;;;;;;;13.60;9.57;;;;;;;19.41;100.00;-18549.16;5095535;28;20051;-76
2023/07/27 06:47:33;;;;;;;12.85;9.13;;;;;;;19.45;100.00;-18550.09;5107176;28;20036;-77
2023/07/27 06:49:59;;;;;;;14.48;9.18;;;;;;;19.37;100.00;-18548.06;5106625;28;20073;-79
2023/07/27 06:52:24;;;;;;;15.18;9.02;;;;;;;19.27;100.00;-18545.47;5102489;27;20044;-78
2023/07/27 06:54:49;;;;;;;14.98;10.50;;;;;;;19.36;100.00;-18547.78;5108399;28;20035;-77
2023/07/27 06:57:15;;;;;;;13.23;8.98;;;;;;;19.05;100.00;-18539.63;5088225;28;20078;-78
2023/07/27 06:59:40;;;;;;;15.25;9.98;;;;;;;19.12;100.00;-18541.38;5099548;28;20142;-77
2023/07/27 07:02:06;;;;;;;14.63;10.15;;;;;;;19.22;100.00;-18544.13;5102350;28;20128;-77
2023/07/27 07:04:31;;;;;;;12.23;10.43;;;;;;;19.26;100.00;-18545.06;5104090;28;20494;-78
2023/07/27 07:06:57;;;;;;;16.17;10.50;;;;;;;19.27;100.00;-18545.47;5107301;28;20726;-78
2023/07/27 07:09:23;;;;;;;13.95;10.00;;;;;;;19.28;100.00;-18545.63;5108275;28;20027;-77
2023/07/27 07:11:48;;;;;;;13.70;10.15;;;;;;;19.17;100.00;-18542.88;5107105;28;20071;-76
2023/07/27 07:14:14;;;;;;;16.58;10.63;;;;;;;19.16;100.00;-18542.63;5098389;28;20427;-78
2023/07/27 07:16:39;;;;;;;14.35;11.10;;;;;;;19.25;100.00;-18544.94;5086409;28;20039;-77
2023/07/27 07:19:05;;;;;;;16.88;11.75;;;;;;;19.25;100.00;-18544.78;5107977;28;20039;-77
2023/07/27 07:21:30;;;;;;;13.43;10.40;;;;;;;19.29;100.00;-18545.88;5107587;28;20047;-77
2023/07/27 07:23:55;;;;;;;15.55;11.02;;;;;;;19.46;100.00;-18550.53;5108359;28;20048;-77
2023/07/27 07:26:21;;;;;;;15.98;11.98;;;;;;;19.49;100.00;-18551.34;5108944;28;20059;-77
2023/07/27 07:28:46;;;;;;;15.60;11.13;;;;;;;19.30;100.00;-18546.28;5107874;28;20062;-78
2023/07/27 07:31:12;;;;;;;15.38;11.48;;;;;;;19.10;100.00;-18540.97;5107603;28;20162;-77
2023/07/27 07:33:37;;;;;;;16.00;12.05;;;;;;;19.12;100.00;-18541.53;5108011;28;20038;-77
2023/07/27 07:36:03;;;;;;;17.30;12.63;;;;;;;19.21;100.00;-18543.84;5087524;28;20044;-78
2023/07/27 07:38:28;;;;;;;15.20;12.20;;;;;;;19.19;100.00;-18543.31;5103937;28;20032;-76
2023/07/27 07:40:53;;;;;;;16.42;12.68;;;;;;;19.32;100.00;-18546.72;5104925;28;20052;-76
2023/07/27 07:43:19;;;;;;;14.45;11.35;;;;;;;19.29;100.00;-18545.88;5088055;28;20100;-77
2023/07/27 07:45:44;;;;;;;14.63;12.02;;;;;;;19.30;100.00;-18546.16;5102746;28;20131;-77
2023/07/27 07:48:09;;;;;;;16.08;12.35;;;;;;;19.38;100.00;-18548.47;5105348;28;20063;-78
2023/07/27 07:50:36;;;;;;;15.05;12.25;;;;;;;19.49;100.00;-18551.34;5086367;28;20394;-77
2023/07/27 07:53:02;;;;;;;18.60;11.55;;;;;;;19.37;100.00;-18548.19;5107912;28;20050;-76
2023/07/27 07:55:28;;;;;;;17.77;13.60;;;;;;;19.47;100.00;-18550.66;5108525;28;20039;-77
2023/07/27 07:57:53;;;;;;;15.75;13.35;;;;;;;19.58;100.00;-18553.78;5101664;28;20038;-76
2023/07/27 08:00:18;;;;;;;16.80;12.30;;;;;;;19.38;100.00;-18548.34;5108387;28;20063;-77
2023/07/27 08:02:44;;;;;;;16.50;13.85;;;;;;;19.68;100.00;-18556.25;5105591;28;20065;-76
2023/07/27 08:05:10;;;;;;;18.38;14.95;;;;;;;19.59;100.00;-18554.06;5104422;28;20076;-77
2023/07/27 08:07:35;;;;;;;20.83;13.93;;;;;;;19.58;100.00;-18553.66;5101856;28;20113;-76
2023/07/27 08:10:02;;;;;;;17.88;13.57;;;;;;;19.61;100.00;-18554.59;5106590;28;20063;-77
2023/07/27 08:12:28;;;;;;;17.60;14.43;;;;;;;19.61;100.00;-18554.47;5106029;28;20047;-77
2023/07/27 08:14:53;;;;;;;16.02;12.38;;;;;;;19.61;100.00;-18554.47;5105716;28;20036;-78
2023/07/27 08:17:18;;;;;;;19.52;14.30;;;;;;;19.59;100.00;-18554.06;5108071;28;20046;-76
2023/07/27 08:19:44;;;;;;;17.48;14.02;;;;;;;19.65;100.00;-18555.41;5106051;28;20043;-77
2023/07/27 08:22:09;;;;;;;16.90;14.15;;;;;;;19.73;100.00;-18557.75;5106077;28;20508;-77
2023/07/27 08:24:34;;;;;;;16.65;14.25;;;;;;;19.86;100.00;-18561.00;5086037;28;20047;-77
2023/07/27 08:27:04;;;;;;;15.50;13.30;;;;;;;19.75;100.00;-18558.16;5104055;28;20146;-77
2023/07/27 08:29:29;;;;;;;16.23;12.75;;;;;;;20.02;100.00;-18565.50;5102836;28;20035;-78
2023/07/27 08:31:54;;;;;;;14.20;12.15;;;;;;;20.13;100.00;-18568.22;5086505;28;20051;-77
2023/07/27 08:34:20;;;;;;;14.38;11.30;;;;;;;20.01;100.00;-18565.22;5103647;28;20039;-77
2023/07/27 08:36:47;;;;;;;12.57;10.75;;;;;;;19.88;100.00;-18561.69;5106052;28;20526;-77
2023/07/27 08:39:12;;;;;;;11.52;8.85;;;;;;;19.82;100.00;-18560.19;5102954;28;20031;-77
2023/07/27 08:41:39;;;;;;;11.93;9.85;;;;;;;19.97;100.00;-18564.16;5082728;28;20042;-77
2023/07/27 08:44:06;;;;;;;10.95;9.00;;;;;;;19.90;100.00;-18562.09;5105205;28;20047;-77
2023/07/27 08:46:33;;;;;;;12.48;10.98;;;;;;;19.91;100.00;-18562.38;5085461;28;20715;-78
2023/07/27 08:49:01;;;;;;;8.57;7.55;;;;;;;19.96;100.00;-18563.72;5105259;28;20554;-77
2023/07/27 08:51:29;;;;;;;9.57;6.93;;;;;;;20.02;100.00;-18565.50;5103427;28;20066;-77
2023/07/27 08:53:55;;;;;;;8.68;7.78;;;;;;;20.06;100.00;-18566.59;5101593;28;20058;-77
2023/07/27 08:56:20;;;;;;;8.73;7.82;;;;;;;20.12;100.00;-18567.97;5106410;28;20032;-78
2023/07/27 08:58:46;;;;;;;8.23;6.32;;;;;;;20.14;100.00;-18568.50;5105371;28;20604;-77
2023/07/27 09:01:11;;;;;;;7.70;6.05;;;;;;;20.15;100.00;-18568.78;5105202;28;20763;-76
2023/07/27 09:03:36;;;;;;;8.40;6.88;;;;;;;20.24;100.00;-18571.22;5101343;28;20123;-76
2023/07/27 09:06:03;;;;;;;7.45;6.03;;;;;;;20.26;100.00;-18571.75;5103999;28;20043;-76
2023/07/27 09:08:29;;;;;;;8.05;6.90;;;;;;;20.50;100.00;-18578.28;5106624;28;20032;-78
2023/07/27 09:11:06;;;;;;;7.50;5.57;;;;;;;20.58;100.00;-18580.34;5098684;28;20027;-78
2023/07/27 09:13:32;;;;;;;7.40;6.30;;;;;;;20.71;100.00;-18583.75;5104610;28;20055;-77
2023/07/27 09:15:59;;;;;;;6.72;5.82;;;;;;;20.84;100.00;-18587.16;5103115;28;20498;-76
2023/07/27 09:18:25;;;;;;;6.40;5.10;;;;;;;20.77;100.00;-18585.38;5106376;28;20419;-77
2023/07/27 09:20:51;;;;;;;8.80;5.80;;;;;;;20.68;100.00;-18582.94;5089700;28;20039;-76
2023/07/27 09:23:20;;;;;;;7.28;5.63;;;;;;;20.82;100.00;-18586.72;5106213;28;20039;-76
2023/07/27 09:25:55;;;;;;;6.10;5.00;;;;;;;20.91;100.00;-18589.03;5105015;28;20052;-77
2023/07/27 09:28:28;;;;;;;5.78;4.45;;;;;;;20.76;100.00;-18584.97;5106518;28;20498;-77
2023/07/27 09:31:02;;;;;;;6.13;5.10;;;;;;;20.71;100.00;-18583.75;5101958;28;20416;-77
2023/07/27 09:33:28;;;;;;;5.80;4.57;;;;;;;20.67;100.00;-18582.78;5102175;28;20521;-77
2023/07/27 09:35:56;;;;;;;6.95;4.57;;;;;;;20.72;100.00;-18584.00;5102258;28;20039;-77
2023/07/27 09:38:26;;;;;;;3.63;3.03;;;;;;;20.54;100.00;-18579.13;5099934;28;20031;-77
2023/07/27 09:40:52;;;;;;;5.50;3.90;;;;;;;20.58;100.00;-18580.22;5102487;28;20056;-76
2023/07/27 09:43:17;;;;;;;8.02;4.38;;;;;;;20.63;100.00;-18581.69;5109727;28;20128;-78
2023/07/27 09:45:43;;;;;;;5.22;4.40;;;;;;;20.68;100.00;-18582.94;5104284;28;20652;-76
2023/07/27 09:48:08;;;;;;;6.38;3.88;;;;;;;20.58;100.00;-18580.22;5089825;28;20036;-76
2023/07/27 09:50:37;;;;;;;5.90;4.13;;;;;;;20.44;100.00;-18576.66;5106151;28;20515;-78
2023/07/27 09:53:05;;;;;;;4.80;3.65;;;;;;;20.38;100.00;-18575.03;5108512;28;20117;-77
2023/07/27 09:55:32;;;;;;;5.20;4.30;;;;;;;20.59;100.00;-18580.63;5109277;28;20408;-77
2023/07/27 09:57:58;;;;;;;7.13;4.32;;;;;;;20.47;100.00;-18577.47;5108832;28;20143;-77
2023/07/27 10:00:25;;;;;;;5.20;4.50;;;;;;;20.45;100.00;-18576.78;5109824;28;20151;-77
2023/07/27 10:02:50;;;;;;;4.72;3.70;;;;;;;20.43;100.00;-18576.41;5107301;28;20032;-77
2023/07/27 10:05:16;;;;;;;5.45;4.25;;;;;;;20.62;100.00;-18581.28;5089605;28;20044;-76
2023/07/27 10:07:42;;;;;;;6.22;4.40;;;;;;;20.77;100.00;-18585.38;5087406;28;20046;-76
2023/07/27 10:10:38;;;;;;;4.65;3.70;;;;;;;20.68;100.00;-18582.94;5108973;28;20067;-78
2023/07/27 10:13:30;;;;;;;7.22;4.95;;;;;;;20.70;100.00;-18583.47;5102890;28;20066;-77
2023/07/27 10:15:56;;;;;;;6.03;4.78;;;;;;;20.79;100.00;-18585.78;5108030;28;20071;-77
2023/07/27 10:18:27;;;;;;;6.47;4.85;;;;;;;20.90;100.00;-18588.91;5107800;28;20122;-76
2023/07/27 10:20:56;;;;;;;7.32;5.28;;;;;;;20.86;100.00;-18587.81;5107594;28;20525;-77
2023/07/27 10:23:29;;;;;;;7.53;5.95;;;;;;;20.91;100.00;-18589.19;5087519;28;20092;-76
2023/07/27 10:26:03;;;;;;;7.70;5.88;;;;;;;20.92;100.00;-18589.31;5105085;28;20036;-78
2023/07/27 10:28:43;;;;;;;9.82;6.82;;;;;;;21.11;100.00;-18594.47;5098342;28;20039;-78
2023/07/27 10:31:25;;;;;;;9.85;6.55;;;;;;;21.10;100.00;-18594.09;5081294;28;20126;-77
2023/07/27 10:34:11;;;;;;;7.95;6.63;;;;;;;21.11;100.00;-18594.34;5105855;28;20138;-77
2023/07/27 10:36:59;;;;;;;9.25;6.45;;;;;;;21.04;100.00;-18592.59;5106659;28;20036;-77
2023/07/27 10:39:34;;;;;;;8.32;5.10;;;;;;;20.96;100.00;-18590.41;5108200;28;20032;-76
2023/07/27 10:42:10;;;;;;;7.00;5.82;;;;;;;20.98;100.00;-18590.81;5101125;28;20043;-78
2023/07/27 10:44:46;;;;;;;7.28;5.63;;;;;;;20.96;100.00;-18590.41;5107424;28;20126;-77
2023/07/27 10:47:13;;;;;;;7.20;5.22;;;;;;;21.05;100.00;-18592.72;5090092;28;20051;-77
2023/07/27 10:49:43;;;;;;;6.40;5.00;;;;;;;21.00;100.00;-18591.34;5106036;28;20046;-77
2023/07/27 10:52:13;;;;;;;5.70;4.80;;;;;;;20.95;100.00;-18590.28;5105785;28;20114;-77
2023/07/27 10:54:40;;;;;;;5.82;4.32;;;;;;;20.93;100.00;-18589.59;5106162;28;20039;-76
2023/07/27 10:57:08;;;;;;;6.90;5.47;;;;;;;20.97;100.00;-18590.69;5105521;28;20074;-77
2023/07/27 10:59:41;;;;;;;7.30;5.03;;;;;;;21.28;100.00;-18598.97;5108167;28;20118;-76
2023/07/27 11:02:17;;;;;;;8.25;4.80;;;;;;;21.31;100.00;-18599.78;5097282;28;20027;-76
2023/07/27 11:04:43;;;;;;;5.68;4.60;;;;;;;21.18;100.00;-18596.25;5083443;28;20100;-78
2023/07/27 11:07:10;;;;;;;6.28;4.93;;;;;;;21.29;100.00;-18599.25;5107628;28;20043;-78
2023/07/27 11:09:36;;;;;;;5.70;4.07;;;;;;;21.36;100.00;-18601.16;5107464;28;20088;-77